createdAt,value
2023-01-23T00:00:12.200Z,101570.22
2023-01-23T00:05:18.003Z,101561.00
2023-01-23T00:10:23.073Z,101551.75
2023-01-23T00:15:28.188Z,101551.75
2023-01-23T00:20:32.393Z,101545.91
2023-01-23T00:25:37.079Z,101535.00
2023-01-23T00:30:41.153Z,101528.38
2023-01-23T00:35:46.617Z,101534.31
2023-01-23T00:40:52.375Z,101532.66
2023-01-23T00:45:57.809Z,101513.34
2023-01-23T00:51:01.837Z,101515.84
2023-01-23T00:56:06.944Z,101507.38
2023-01-23T01:01:14.860Z,101501.63
2023-01-23T01:06:19.835Z,101480.19
2023-01-23T01:11:27.392Z,101481.44
2023-01-23T01:16:35.455Z,101485.78
2023-01-23T01:21:42.920Z,101479.91
2023-01-23T01:26:48.371Z,101466.50
2023-01-23T01:31:54.857Z,101462.28
2023-01-23T01:36:59.771Z,101448.84
2023-01-23T01:42:05.330Z,101452.22
2023-01-23T01:47:18.023Z,101378.13
2023-01-23T01:52:24.331Z,101443.97
2023-01-23T01:57:37.074Z,101430.59
2023-01-23T02:02:50.325Z,101436.53
2023-01-23T02:08:18.960Z,101427.34
2023-01-23T02:13:37.552Z,101421.63
2023-01-23T02:18:46.033Z,101398.97
2023-01-23T02:24:18.470Z,101399.03
2023-01-23T02:29:23.236Z,101318.88
2023-01-23T02:34:31.772Z,101334.38
2023-01-23T02:39:40.355Z,101374.81
2023-01-23T02:44:48.114Z,101367.41
2023-01-23T02:49:56.522Z,101354.09
2023-01-23T02:55:01.899Z,101367.63
2023-01-23T03:00:25.051Z,101330.78
2023-01-23T03:05:30.421Z,101329.97
2023-01-23T03:10:37.037Z,101331.78
2023-01-23T03:15:43.235Z,101310.09
2023-01-23T03:20:48.880Z,101314.47
2023-01-23T03:25:59.487Z,101309.53
2023-01-23T03:31:08.498Z,101301.22
2023-01-23T03:36:14.348Z,101292.97
2023-01-23T03:41:28.746Z,101287.16
2023-01-23T03:46:38.056Z,101271.34
2023-01-23T03:51:43.000Z,101269.81
2023-01-23T03:56:48.021Z,101280.84
2023-01-23T04:02:19.619Z,101270.97
2023-01-23T04:07:25.412Z,101270.25
2023-01-23T04:12:31.998Z,101277.19
2023-01-23T04:17:37.044Z,101279.13
2023-01-23T04:22:42.976Z,101275.97
2023-01-23T04:27:48.534Z,101279.38
2023-01-23T04:32:52.576Z,101279.63
2023-01-23T04:37:57.168Z,101257.75
2023-01-23T04:43:02.517Z,101243.59
2023-01-23T04:48:25.025Z,101260.91
2023-01-23T04:53:30.457Z,101271.13
2023-01-23T04:58:38.790Z,101259.41
2023-01-23T05:03:46.826Z,101257.88
2023-01-23T05:08:53.904Z,101246.28
2023-01-23T05:14:08.866Z,101236.34
2023-01-23T05:19:16.422Z,101232.28
2023-01-23T05:24:23.023Z,101210.44
2023-01-23T05:29:27.876Z,101232.75
2023-01-23T05:34:44.771Z,101239.63
2023-01-23T05:40:01.600Z,101229.69
2023-01-23T05:45:27.627Z,101218.06
2023-01-23T05:50:34.610Z,101214.75
2023-01-23T05:55:39.970Z,101206.47
2023-01-23T06:00:46.468Z,101206.66
2023-01-23T06:06:13.154Z,101192.47
2023-01-23T06:11:16.957Z,101200.50
2023-01-23T06:16:22.133Z,101193.19
2023-01-23T06:21:28.554Z,101198.63
2023-01-23T06:26:36.391Z,101196.38
2023-01-23T06:31:41.338Z,101193.28
2023-01-23T06:36:48.268Z,101174.81
2023-01-23T06:41:55.164Z,101185.16
2023-01-23T06:47:00.250Z,101177.69
2023-01-23T06:52:08.595Z,101171.03
2023-01-23T06:57:14.039Z,101175.34
2023-01-23T07:02:19.494Z,101104.59
2023-01-23T07:07:27.759Z,101171.94
2023-01-23T07:12:33.972Z,101166.06
2023-01-23T07:17:38.601Z,101176.28
2023-01-23T07:22:44.597Z,101176.47
2023-01-23T07:27:48.481Z,101184.22
2023-01-23T07:32:55.815Z,101157.38
2023-01-23T07:38:01.103Z,101164.19
2023-01-23T07:43:06.530Z,101154.06
2023-01-23T07:48:11.374Z,101171.81
2023-01-23T07:53:15.207Z,101164.25
2023-01-23T07:58:22.643Z,101180.31
2023-01-23T08:03:29.571Z,101187.19
2023-01-23T08:08:34.532Z,101186.50
2023-01-23T08:13:39.410Z,101205.97
2023-01-23T08:18:45.153Z,101191.69
2023-01-23T08:23:48.970Z,101168.75
2023-01-23T08:28:54.718Z,101190.78
2023-01-23T08:33:59.613Z,101193.19
2023-01-23T08:39:04.026Z,101168.50
2023-01-23T08:44:08.698Z,101182.13
2023-01-23T08:49:12.849Z,101182.97
2023-01-23T08:54:17.485Z,101171.91
2023-01-23T08:59:22.525Z,101176.88
2023-01-23T09:04:26.387Z,101152.28
2023-01-23T09:09:31.109Z,101178.56
2023-01-23T09:14:35.146Z,101181.88
2023-01-23T09:19:39.966Z,101183.47
2023-01-23T09:24:45.492Z,101190.97
2023-01-23T09:29:52.189Z,101189.97
2023-01-23T09:34:56.183Z,101196.72
2023-01-23T09:40:01.505Z,101202.50
2023-01-23T09:45:09.041Z,101212.47
2023-01-23T09:50:28.646Z,101192.94
2023-01-23T09:55:43.585Z,101204.69
2023-01-23T10:00:48.291Z,101210.41
2023-01-23T10:06:20.873Z,101201.75
2023-01-23T10:11:34.739Z,101198.19
2023-01-23T10:16:50.853Z,101207.19
2023-01-23T10:22:37.071Z,101211.94
2023-01-23T10:27:47.780Z,101204.88
2023-01-23T10:33:15.699Z,101206.03
2023-01-23T10:38:34.493Z,101204.91
2023-01-23T10:43:38.298Z,101197.22
2023-01-23T10:48:54.091Z,101192.06
2023-01-23T10:54:31.347Z,101185.06
2023-01-23T10:59:52.759Z,101194.66
2023-01-23T11:05:00.135Z,101197.88
2023-01-23T11:10:12.841Z,101186.78
2023-01-23T11:15:27.123Z,101182.06
2023-01-23T11:20:35.633Z,101184.38
2023-01-23T11:26:07.589Z,101200.03
2023-01-23T11:31:20.152Z,101130.03
2023-01-23T11:36:53.623Z,101167.53
2023-01-23T11:41:59.252Z,101198.81
2023-01-23T11:47:40.267Z,101192.09
2023-01-23T11:53:07.278Z,101202.22
2023-01-23T11:58:37.210Z,101205.59
2023-01-23T12:04:25.340Z,101190.25
2023-01-23T12:09:55.177Z,101196.28
2023-01-23T12:15:19.107Z,101195.69
2023-01-23T12:20:48.505Z,101199.47
2023-01-23T12:26:05.031Z,101170.31
2023-01-23T12:31:25.064Z,101186.47
2023-01-23T12:36:44.294Z,101183.28
2023-01-23T12:42:12.469Z,101201.91
2023-01-23T12:47:27.938Z,101196.94
2023-01-23T12:52:45.614Z,101192.69
2023-01-23T12:58:07.804Z,101182.44
2023-01-23T13:03:37.410Z,101168.94
2023-01-23T13:09:12.621Z,101164.63
2023-01-23T13:15:12.457Z,101164.53
2023-01-23T13:20:41.428Z,101161.94
2023-01-23T13:25:47.625Z,101173.78
2023-01-23T13:31:05.027Z,101178.09
2023-01-23T13:36:24.877Z,101179.78
2023-01-23T13:41:36.101Z,101157.75
2023-01-23T14:20:40.379Z,101151.84
2023-01-23T14:25:48.768Z,101157.91
2023-01-23T14:31:23.814Z,101158.06
2023-01-23T14:36:29.535Z,101122.16
2023-01-23T14:41:41.852Z,101158.94
2023-01-23T14:46:48.068Z,101140.25
2023-01-23T14:52:02.973Z,101163.25
2023-01-23T14:57:10.803Z,101144.78
2023-01-23T15:02:28.222Z,101146.53
2023-01-23T15:07:31.857Z,101133.94
2023-01-23T15:12:39.202Z,101144.81
2023-01-23T15:17:46.969Z,101142.28
2023-01-23T15:22:52.593Z,101146.50
2023-01-23T15:27:58.105Z,101144.88
2023-01-23T15:33:07.961Z,101135.56
2023-01-23T15:38:18.725Z,101126.22
2023-01-23T15:43:24.786Z,101134.78
2023-01-23T15:48:29.484Z,101158.47
2023-01-23T15:53:35.377Z,101147.69
2023-01-23T15:58:40.357Z,101125.03
2023-01-23T16:03:46.764Z,101135.16
2023-01-23T16:09:05.145Z,101143.69
2023-01-23T16:14:19.464Z,101139.66
2023-01-23T16:19:25.722Z,101119.47
2023-01-23T16:24:35.591Z,101127.97
2023-01-23T16:29:39.619Z,101118.78
2023-01-23T16:34:44.666Z,101120.56
2023-01-23T16:39:48.549Z,101122.38
2023-01-23T16:44:53.411Z,101125.00
2023-01-23T16:49:57.169Z,101120.94
2023-01-23T16:55:14.529Z,101117.63
2023-01-23T17:00:33.506Z,101116.84
2023-01-23T17:05:39.840Z,101122.78
2023-01-23T17:10:46.604Z,101120.28
2023-01-23T17:15:57.666Z,101126.31
2023-01-23T17:21:02.381Z,101123.88
2023-01-23T17:26:18.557Z,101109.66
2023-01-23T17:31:27.568Z,101112.19
2023-01-23T17:36:37.635Z,101108.91
2023-01-23T17:41:45.895Z,101096.34
2023-01-23T17:46:56.952Z,101096.41
2023-01-23T17:52:03.391Z,101092.25
2023-01-23T17:57:07.257Z,101092.34
2023-01-23T18:02:27.721Z,101085.66
2023-01-23T18:07:52.267Z,101073.03
2023-01-23T18:13:23.922Z,101090.03
2023-01-23T18:18:34.635Z,101087.53
2023-01-23T18:23:39.613Z,101087.53
2023-01-23T18:29:14.543Z,101074.91
2023-01-23T18:34:37.822Z,101074.94
2023-01-23T18:39:41.449Z,101075.78
2023-01-23T18:45:23.699Z,101067.31
2023-01-23T18:50:31.102Z,101073.19
2023-01-23T18:56:15.103Z,101061.44
2023-01-23T19:01:54.394Z,101058.13
2023-01-23T19:06:59.275Z,101055.63
2023-01-23T19:12:25.473Z,101048.03
2023-01-23T19:17:52.549Z,101061.50
2023-01-23T19:23:23.006Z,101045.53
2023-01-23T19:28:27.117Z,101053.13
2023-01-23T19:33:31.386Z,101054.84
2023-01-23T19:38:35.425Z,101054.84
2023-01-23T19:43:39.160Z,101052.34
2023-01-23T19:48:45.596Z,101054.03
2023-01-23T19:53:50.863Z,101052.34
2023-01-23T19:58:55.154Z,101034.56
2023-01-23T20:03:59.147Z,101029.59
2023-01-23T20:09:03.750Z,101039.75
2023-01-23T20:14:08.449Z,101030.44
2023-01-23T20:19:17.100Z,101036.28
2023-01-23T20:24:22.853Z,101004.84
2023-01-23T20:29:28.769Z,101012.50
2023-01-23T20:34:34.210Z,101011.56
2023-01-23T20:39:38.213Z,101003.72
2023-01-23T20:44:45.896Z,100943.31
2023-01-23T20:49:50.023Z,101009.75
2023-01-23T20:54:54.000Z,100986.03
2023-01-23T20:59:58.387Z,101016.59
2023-01-23T21:05:03.956Z,100983.69
2023-01-23T21:10:08.172Z,100988.03
2023-01-23T21:15:13.536Z,100993.97
2023-01-23T21:20:20.368Z,100965.16
2023-01-23T21:25:26.079Z,100978.88
2023-01-23T21:30:31.488Z,100959.34
2023-01-23T21:35:36.939Z,100972.19
2023-01-23T21:40:40.841Z,100975.59
2023-01-23T21:45:45.756Z,100974.00
2023-01-23T21:50:49.751Z,100946.13
2023-01-23T21:55:55.077Z,100966.59
2023-01-23T22:01:20.233Z,100942.16
2023-01-23T22:06:26.829Z,100964.19
2023-01-23T22:11:32.924Z,100956.63
2023-01-23T22:16:48.383Z,100945.72
2023-01-23T22:21:54.626Z,100945.78
2023-01-23T22:26:58.357Z,100941.59
2023-01-23T22:32:05.113Z,100934.84
2023-01-23T22:37:14.894Z,100934.84
2023-01-23T22:42:21.728Z,100925.63
2023-01-23T22:47:25.804Z,100913.81
2023-01-23T22:52:29.521Z,100909.59
2023-01-23T22:57:37.016Z,100914.72
2023-01-23T23:02:41.148Z,100901.25
2023-01-23T23:07:45.116Z,100908.88
2023-01-23T23:12:48.944Z,100890.25
2023-01-23T23:17:52.949Z,100892.88
2023-01-23T23:22:56.716Z,100884.34
2023-01-23T23:28:01.904Z,100828.38
2023-01-23T23:33:06.504Z,100881.97
2023-01-23T23:38:16.828Z,100872.69
2023-01-23T23:43:20.610Z,100875.22
2023-01-23T23:48:24.941Z,100858.41
2023-01-23T23:53:28.894Z,100859.19
2023-01-23T23:58:35.779Z,100864.34
